sensor_id;sensor_type;location;lat;lon;timestamp;temperature;humidity
27781;DHT22;15167;1.318;103.762;2022-07-29T00:00:41;28.30;99.90
27781;DHT22;15167;1.318;103.762;2022-07-29T00:03:10;28.30;99.90
27781;DHT22;15167;1.318;103.762;2022-07-29T00:05:38;28.30;99.90
27781;DHT22;15167;1.318;103.762;2022-07-29T00:08:04;28.30;99.90
27781;DHT22;15167;1.318;103.762;2022-07-29T00:10:30;28.40;99.90
27781;DHT22;15167;1.318;103.762;2022-07-29T00:12:57;28.50;99.90
27781;DHT22;15167;1.318;103.762;2022-07-29T00:15:23;28.50;99.90
27781;DHT22;15167;1.318;103.762;2022-07-29T00:17:49;28.60;99.90
27781;DHT22;15167;1.318;103.762;2022-07-29T00:20:15;28.70;99.90
27781;DHT22;15167;1.318;103.762;2022-07-29T00:22:41;28.80;99.90
27781;DHT22;15167;1.318;103.762;2022-07-29T00:25:07;28.90;99.90
27781;DHT22;15167;1.318;103.762;2022-07-29T00:27:34;28.90;99.90
27781;DHT22;15167;1.318;103.762;2022-07-29T00:30:00;29.00;99.90
27781;DHT22;15167;1.318;103.762;2022-07-29T00:32:27;29.10;99.90
27781;DHT22;15167;1.318;103.762;2022-07-29T00:34:53;29.10;99.90
27781;DHT22;15167;1.318;103.762;2022-07-29T00:37:37;29.20;99.90
27781;DHT22;15167;1.318;103.762;2022-07-29T00:40:03;29.30;99.90
27781;DHT22;15167;1.318;103.762;2022-07-29T00:42:29;29.40;99.90
27781;DHT22;15167;1.318;103.762;2022-07-29T00:44:55;29.50;99.90
27781;DHT22;15167;1.318;103.762;2022-07-29T00:47:21;29.60;99.90
27781;DHT22;15167;1.318;103.762;2022-07-29T00:49:48;29.70;99.90
27781;DHT22;15167;1.318;103.762;2022-07-29T00:52:14;29.70;99.90
27781;DHT22;15167;1.318;103.762;2022-07-29T00:54:40;29.70;99.90
27781;DHT22;15167;1.318;103.762;2022-07-29T00:57:07;29.70;99.90
27781;DHT22;15167;1.318;103.762;2022-07-29T00:59:33;29.70;99.90
27781;DHT22;15167;1.318;103.762;2022-07-29T01:02:00;29.70;99.90
27781;DHT22;15167;1.318;103.762;2022-07-29T01:04:26;29.70;99.90
27781;DHT22;15167;1.318;103.762;2022-07-29T01:06:55;29.80;99.90
27781;DHT22;15167;1.318;103.762;2022-07-29T01:09:21;29.80;99.90
27781;DHT22;15167;1.318;103.762;2022-07-29T01:11:48;29.90;99.90
27781;DHT22;15167;1.318;103.762;2022-07-29T01:14:14;29.90;99.90
27781;DHT22;15167;1.318;103.762;2022-07-29T01:22:09;30.00;99.90
27781;DHT22;15167;1.318;103.762;2022-07-29T01:29:43;30.10;99.90
27781;DHT22;15167;1.318;103.762;2022-07-29T01:32:18;30.20;99.90
27781;DHT22;15167;1.318;103.762;2022-07-29T01:37:33;30.40;99.90
27781;DHT22;15167;1.318;103.762;2022-07-29T01:40:02;30.40;99.90
27781;DHT22;15167;1.318;103.762;2022-07-29T01:45:02;30.40;99.90
27781;DHT22;15167;1.318;103.762;2022-07-29T01:47:36;30.50;99.90
27781;DHT22;15167;1.318;103.762;2022-07-29T01:50:03;30.60;99.90
27781;DHT22;15167;1.318;103.762;2022-07-29T01:52:33;30.70;99.90
27781;DHT22;15167;1.318;103.762;2022-07-29T01:55:02;30.90;99.90
27781;DHT22;15167;1.318;103.762;2022-07-29T01:57:30;31.00;99.90
27781;DHT22;15167;1.318;103.762;2022-07-29T01:59:58;31.10;99.90
27781;DHT22;15167;1.318;103.762;2022-07-29T02:02:26;31.10;99.90
27781;DHT22;15167;1.318;103.762;2022-07-29T02:04:52;31.10;99.90
27781;DHT22;15167;1.318;103.762;2022-07-29T02:07:20;31.00;99.90
27781;DHT22;15167;1.318;103.762;2022-07-29T02:09:47;31.00;99.90
27781;DHT22;15167;1.318;103.762;2022-07-29T02:12:13;31.10;99.90
27781;DHT22;15167;1.318;103.762;2022-07-29T02:14:42;31.10;99.90
27781;DHT22;15167;1.318;103.762;2022-07-29T02:17:09;31.10;99.90
27781;DHT22;15167;1.318;103.762;2022-07-29T02:19:36;31.20;99.90
27781;DHT22;15167;1.318;103.762;2022-07-29T02:22:03;31.20;99.90
27781;DHT22;15167;1.318;103.762;2022-07-29T02:24:30;31.40;99.90
27781;DHT22;15167;1.318;103.762;2022-07-29T02:26:57;31.40;98.80
27781;DHT22;15167;1.318;103.762;2022-07-29T02:29:25;31.30;99.30
27781;DHT22;15167;1.318;103.762;2022-07-29T02:31:52;31.40;99.90
27781;DHT22;15167;1.318;103.762;2022-07-29T02:34:19;31.40;99.90
27781;DHT22;15167;1.318;103.762;2022-07-29T02:36:46;31.50;97.40
27781;DHT22;15167;1.318;103.762;2022-07-29T02:39:12;31.50;95.30
27781;DHT22;15167;1.318;103.762;2022-07-29T02:41:52;31.60;96.10
27781;DHT22;15167;1.318;103.762;2022-07-29T02:44:21;31.60;95.60
27781;DHT22;15167;1.318;103.762;2022-07-29T02:46:50;31.70;94.60
27781;DHT22;15167;1.318;103.762;2022-07-29T02:51:49;31.70;93.20
27781;DHT22;15167;1.318;103.762;2022-07-29T02:54:21;31.70;94.30
27781;DHT22;15167;1.318;103.762;2022-07-29T02:56:48;31.60;93.90
27781;DHT22;15167;1.318;103.762;2022-07-29T02:59:18;31.50;94.40
27781;DHT22;15167;1.318;103.762;2022-07-29T03:01:47;31.60;94.80
27781;DHT22;15167;1.318;103.762;2022-07-29T03:04:13;31.70;93.70
27781;DHT22;15167;1.318;103.762;2022-07-29T03:06:40;31.70;92.60
27781;DHT22;15167;1.318;103.762;2022-07-29T03:09:06;31.60;92.20
27781;DHT22;15167;1.318;103.762;2022-07-29T03:11:34;31.70;91.20
27781;DHT22;15167;1.318;103.762;2022-07-29T03:14:00;31.80;84.60
27781;DHT22;15167;1.318;103.762;2022-07-29T03:16:26;31.80;86.90
27781;DHT22;15167;1.318;103.762;2022-07-29T03:18:53;31.90;88.80
27781;DHT22;15167;1.318;103.762;2022-07-29T03:21:20;31.90;90.40
27781;DHT22;15167;1.318;103.762;2022-07-29T03:23:46;31.80;91.10
27781;DHT22;15167;1.318;103.762;2022-07-29T03:26:12;31.80;92.10
27781;DHT22;15167;1.318;103.762;2022-07-29T03:28:38;32.00;91.70
27781;DHT22;15167;1.318;103.762;2022-07-29T03:31:04;32.10;90.50
27781;DHT22;15167;1.318;103.762;2022-07-29T03:33:30;32.20;89.10
27781;DHT22;15167;1.318;103.762;2022-07-29T03:35:57;32.20;89.10
27781;DHT22;15167;1.318;103.762;2022-07-29T03:38:24;32.20;85.30
27781;DHT22;15167;1.318;103.762;2022-07-29T03:40:58;32.20;86.40
27781;DHT22;15167;1.318;103.762;2022-07-29T03:43:27;32.40;85.60
27781;DHT22;15167;1.318;103.762;2022-07-29T03:45:55;32.60;82.70
27781;DHT22;15167;1.318;103.762;2022-07-29T03:48:22;32.60;82.30
27781;DHT22;15167;1.318;103.762;2022-07-29T03:50:50;32.60;81.20
27781;DHT22;15167;1.318;103.762;2022-07-29T03:53:16;32.80;79.10
27781;DHT22;15167;1.318;103.762;2022-07-29T03:55:43;33.00;74.30
27781;DHT22;15167;1.318;103.762;2022-07-29T03:58:10;33.10;72.30
27781;DHT22;15167;1.318;103.762;2022-07-29T04:00:37;33.10;71.30
27781;DHT22;15167;1.318;103.762;2022-07-29T04:03:04;33.10;72.80
27781;DHT22;15167;1.318;103.762;2022-07-29T04:05:30;33.10;69.50
27781;DHT22;15167;1.318;103.762;2022-07-29T04:07:56;33.00;74.30
27781;DHT22;15167;1.318;103.762;2022-07-29T04:10:23;33.00;74.50
27781;DHT22;15167;1.318;103.762;2022-07-29T04:12:49;32.90;74.80
27781;DHT22;15167;1.318;103.762;2022-07-29T04:15:15;32.90;76.60
27781;DHT22;15167;1.318;103.762;2022-07-29T04:17:41;32.80;85.70
27781;DHT22;15167;1.318;103.762;2022-07-29T04:20:08;32.80;87.80
27781;DHT22;15167;1.318;103.762;2022-07-29T04:22:34;32.50;86.40
27781;DHT22;15167;1.318;103.762;2022-07-29T04:25:00;32.30;83.90
27781;DHT22;15167;1.318;103.762;2022-07-29T04:27:27;32.20;84.60
27781;DHT22;15167;1.318;103.762;2022-07-29T04:29:53;32.20;88.90
27781;DHT22;15167;1.318;103.762;2022-07-29T04:32:19;32.30;88.80
27781;DHT22;15167;1.318;103.762;2022-07-29T04:34:45;32.40;77.80
27781;DHT22;15167;1.318;103.762;2022-07-29T04:37:12;32.50;63.90
27781;DHT22;15167;1.318;103.762;2022-07-29T04:39:38;32.60;51.90
27781;DHT22;15167;1.318;103.762;2022-07-29T04:42:04;32.90;47.40
27781;DHT22;15167;1.318;103.762;2022-07-29T04:44:30;33.20;41.60
27781;DHT22;15167;1.318;103.762;2022-07-29T04:46:56;33.50;38.40
27781;DHT22;15167;1.318;103.762;2022-07-29T04:49:23;33.80;39.20
27781;DHT22;15167;1.318;103.762;2022-07-29T04:51:49;34.10;39.90
27781;DHT22;15167;1.318;103.762;2022-07-29T04:54:16;34.00;42.20
27781;DHT22;15167;1.318;103.762;2022-07-29T04:56:43;33.80;48.20
27781;DHT22;15167;1.318;103.762;2022-07-29T04:59:09;34.10;55.60
27781;DHT22;15167;1.318;103.762;2022-07-29T05:01:35;33.70;61.20
27781;DHT22;15167;1.318;103.762;2022-07-29T05:04:01;34.10;59.70
27781;DHT22;15167;1.318;103.762;2022-07-29T05:06:27;34.40;57.70
27781;DHT22;15167;1.318;103.762;2022-07-29T05:08:53;34.60;57.10
27781;DHT22;15167;1.318;103.762;2022-07-29T05:11:19;34.80;53.30
27781;DHT22;15167;1.318;103.762;2022-07-29T05:13:46;34.60;53.40
27781;DHT22;15167;1.318;103.762;2022-07-29T05:16:12;34.20;56.20
27781;DHT22;15167;1.318;103.762;2022-07-29T05:18:38;33.90;59.80
27781;DHT22;15167;1.318;103.762;2022-07-29T05:21:04;33.60;67.60
27781;DHT22;15167;1.318;103.762;2022-07-29T05:23:30;33.60;71.30
27781;DHT22;15167;1.318;103.762;2022-07-29T05:25:57;33.60;72.70
27781;DHT22;15167;1.318;103.762;2022-07-29T05:28:26;33.70;71.90
27781;DHT22;15167;1.318;103.762;2022-07-29T05:30:52;33.50;73.60
27781;DHT22;15167;1.318;103.762;2022-07-29T05:33:18;33.10;81.30
27781;DHT22;15167;1.318;103.762;2022-07-29T05:35:44;32.90;85.50
27781;DHT22;15167;1.318;103.762;2022-07-29T05:38:10;32.70;85.90
27781;DHT22;15167;1.318;103.762;2022-07-29T05:40:36;32.70;86.00
27781;DHT22;15167;1.318;103.762;2022-07-29T05:43:02;32.60;84.10
27781;DHT22;15167;1.318;103.762;2022-07-29T05:45:28;32.40;84.40
27781;DHT22;15167;1.318;103.762;2022-07-29T05:47:55;32.30;87.90
27781;DHT22;15167;1.318;103.762;2022-07-29T05:50:21;32.10;90.00
27781;DHT22;15167;1.318;103.762;2022-07-29T05:52:47;32.10;91.50
27781;DHT22;15167;1.318;103.762;2022-07-29T05:55:13;31.90;92.90
27781;DHT22;15167;1.318;103.762;2022-07-29T05:57:39;31.80;93.90
27781;DHT22;15167;1.318;103.762;2022-07-29T06:00:05;31.90;93.60
27781;DHT22;15167;1.318;103.762;2022-07-29T06:02:32;32.00;93.60
27781;DHT22;15167;1.318;103.762;2022-07-29T06:04:58;32.10;93.80
27781;DHT22;15167;1.318;103.762;2022-07-29T06:07:24;32.20;93.80
27781;DHT22;15167;1.318;103.762;2022-07-29T06:09:50;32.30;93.80
27781;DHT22;15167;1.318;103.762;2022-07-29T06:12:16;32.40;93.20
27781;DHT22;15167;1.318;103.762;2022-07-29T06:14:42;32.50;94.20
27781;DHT22;15167;1.318;103.762;2022-07-29T06:17:08;32.60;94.40
27781;DHT22;15167;1.318;103.762;2022-07-29T06:19:37;32.60;94.80
27781;DHT22;15167;1.318;103.762;2022-07-29T06:22:03;32.40;95.50
27781;DHT22;15167;1.318;103.762;2022-07-29T06:24:29;32.40;96.00
27781;DHT22;15167;1.318;103.762;2022-07-29T06:26:56;32.50;96.40
27781;DHT22;15167;1.318;103.762;2022-07-29T06:29:22;32.80;95.70
27781;DHT22;15167;1.318;103.762;2022-07-29T06:31:48;32.80;96.00
27781;DHT22;15167;1.318;103.762;2022-07-29T06:34:14;33.00;95.60
27781;DHT22;15167;1.318;103.762;2022-07-29T06:36:41;33.30;93.50
27781;DHT22;15167;1.318;103.762;2022-07-29T06:39:07;33.50;91.20
27781;DHT22;15167;1.318;103.762;2022-07-29T06:41:34;33.60;91.00
27781;DHT22;15167;1.318;103.762;2022-07-29T06:44:01;33.70;89.30
27781;DHT22;15167;1.318;103.762;2022-07-29T06:46:27;33.70;88.00
27781;DHT22;15167;1.318;103.762;2022-07-29T06:48:53;33.60;88.00
27781;DHT22;15167;1.318;103.762;2022-07-29T06:51:20;33.50;87.40
27781;DHT22;15167;1.318;103.762;2022-07-29T06:53:46;33.50;87.30
27781;DHT22;15167;1.318;103.762;2022-07-29T06:56:12;33.50;89.20
27781;DHT22;15167;1.318;103.762;2022-07-29T06:58:39;33.70;84.50
27781;DHT22;15167;1.318;103.762;2022-07-29T07:01:06;34.50;73.40
27781;DHT22;15167;1.318;103.762;2022-07-29T07:03:32;35.40;60.30
27781;DHT22;15167;1.318;103.762;2022-07-29T07:05:59;36.10;46.00
27781;DHT22;15167;1.318;103.762;2022-07-29T07:08:25;36.50;38.10
27781;DHT22;15167;1.318;103.762;2022-07-29T07:10:51;36.30;36.50
27781;DHT22;15167;1.318;103.762;2022-07-29T07:13:18;35.90;42.30
27781;DHT22;15167;1.318;103.762;2022-07-29T07:15:44;35.80;44.10
27781;DHT22;15167;1.318;103.762;2022-07-29T07:18:13;36.10;40.00
27781;DHT22;15167;1.318;103.762;2022-07-29T07:20:39;36.60;32.20
27781;DHT22;15167;1.318;103.762;2022-07-29T07:23:05;37.30;25.60
27781;DHT22;15167;1.318;103.762;2022-07-29T07:25:32;38.00;20.30
27781;DHT22;15167;1.318;103.762;2022-07-29T07:27:58;38.90;14.00
27781;DHT22;15167;1.318;103.762;2022-07-29T07:30:24;39.50;10.30
27781;DHT22;15167;1.318;103.762;2022-07-29T07:32:50;39.90;7.80
27781;DHT22;15167;1.318;103.762;2022-07-29T07:35:16;40.00;6.10
27781;DHT22;15167;1.318;103.762;2022-07-29T07:37:43;40.10;4.90
27781;DHT22;15167;1.318;103.762;2022-07-29T07:40:09;39.70;6.20
27781;DHT22;15167;1.318;103.762;2022-07-29T07:42:37;38.60;12.60
27781;DHT22;15167;1.318;103.762;2022-07-29T07:45:03;37.60;22.80
27781;DHT22;15167;1.318;103.762;2022-07-29T07:47:31;36.60;38.60
27781;DHT22;15167;1.318;103.762;2022-07-29T07:49:58;35.80;54.80
27781;DHT22;15167;1.318;103.762;2022-07-29T07:52:24;35.00;67.70
27781;DHT22;15167;1.318;103.762;2022-07-29T07:54:50;34.70;75.80
27781;DHT22;15167;1.318;103.762;2022-07-29T07:57:16;34.40;80.80
27781;DHT22;15167;1.318;103.762;2022-07-29T07:59:43;34.20;80.20
27781;DHT22;15167;1.318;103.762;2022-07-29T08:02:09;34.00;82.80
27781;DHT22;15167;1.318;103.762;2022-07-29T08:04:35;33.90;81.60
27781;DHT22;15167;1.318;103.762;2022-07-29T08:07:01;33.60;82.80
27781;DHT22;15167;1.318;103.762;2022-07-29T08:09:28;33.60;85.20
27781;DHT22;15167;1.318;103.762;2022-07-29T08:11:54;33.50;88.00
27781;DHT22;15167;1.318;103.762;2022-07-29T08:14:21;33.50;86.60
27781;DHT22;15167;1.318;103.762;2022-07-29T08:16:47;33.40;86.00
27781;DHT22;15167;1.318;103.762;2022-07-29T08:19:13;33.20;88.70
27781;DHT22;15167;1.318;103.762;2022-07-29T08:21:39;33.20;87.80
27781;DHT22;15167;1.318;103.762;2022-07-29T08:24:06;33.20;87.80
27781;DHT22;15167;1.318;103.762;2022-07-29T08:26:50;33.10;90.00
27781;DHT22;15167;1.318;103.762;2022-07-29T08:29:16;33.10;87.90
27781;DHT22;15167;1.318;103.762;2022-07-29T08:31:42;33.00;88.30
27781;DHT22;15167;1.318;103.762;2022-07-29T08:34:08;33.00;87.50
27781;DHT22;15167;1.318;103.762;2022-07-29T08:36:34;33.10;84.20
27781;DHT22;15167;1.318;103.762;2022-07-29T08:39:01;33.10;81.60
27781;DHT22;15167;1.318;103.762;2022-07-29T08:41:27;33.10;81.00
27781;DHT22;15167;1.318;103.762;2022-07-29T08:43:54;33.20;80.00
27781;DHT22;15167;1.318;103.762;2022-07-29T08:46:20;33.20;79.90
27781;DHT22;15167;1.318;103.762;2022-07-29T08:48:46;33.20;78.40
27781;DHT22;15167;1.318;103.762;2022-07-29T08:51:16;33.10;79.80
27781;DHT22;15167;1.318;103.762;2022-07-29T08:53:43;33.10;80.30
27781;DHT22;15167;1.318;103.762;2022-07-29T08:56:13;33.00;80.10
27781;DHT22;15167;1.318;103.762;2022-07-29T08:58:39;33.00;79.50
27781;DHT22;15167;1.318;103.762;2022-07-29T09:01:05;32.90;80.60
27781;DHT22;15167;1.318;103.762;2022-07-29T09:03:32;33.00;79.00
27781;DHT22;15167;1.318;103.762;2022-07-29T09:06:00;33.10;77.10
27781;DHT22;15167;1.318;103.762;2022-07-29T09:08:27;33.20;74.00
27781;DHT22;15167;1.318;103.762;2022-07-29T09:10:53;33.30;73.70
27781;DHT22;15167;1.318;103.762;2022-07-29T09:13:21;33.40;71.20
27781;DHT22;15167;1.318;103.762;2022-07-29T09:15:47;33.30;70.80
27781;DHT22;15167;1.318;103.762;2022-07-29T09:20:58;33.20;72.20
27781;DHT22;15167;1.318;103.762;2022-07-29T09:26:28;32.80;80.60
27781;DHT22;15167;1.318;103.762;2022-07-29T09:28:55;32.70;83.10
27781;DHT22;15167;1.318;103.762;2022-07-29T09:31:27;32.50;84.30
27781;DHT22;15167;1.318;103.762;2022-07-29T09:33:57;32.50;85.10
27781;DHT22;15167;1.318;103.762;2022-07-29T09:36:26;32.40;88.10
27781;DHT22;15167;1.318;103.762;2022-07-29T09:39:01;31.60;86.50
27781;DHT22;15167;1.318;103.762;2022-07-29T09:41:28;30.50;95.50
27781;DHT22;15167;1.318;103.762;2022-07-29T09:43:58;29.60;99.10
27781;DHT22;15167;1.318;103.762;2022-07-29T09:46:25;28.30;99.90
27781;DHT22;15167;1.318;103.762;2022-07-29T09:49:07;26.30;99.90
27781;DHT22;15167;1.318;103.762;2022-07-29T09:51:36;25.10;99.90
27781;DHT22;15167;1.318;103.762;2022-07-29T09:54:24;24.60;99.90
27781;DHT22;15167;1.318;103.762;2022-07-29T09:56:49;24.30;99.90
27781;DHT22;15167;1.318;103.762;2022-07-29T09:59:15;24.00;99.90
27781;DHT22;15167;1.318;103.762;2022-07-29T10:01:42;23.80;99.90
27781;DHT22;15167;1.318;103.762;2022-07-29T10:04:08;23.80;99.90
27781;DHT22;15167;1.318;103.762;2022-07-29T10:06:34;23.70;99.90
27781;DHT22;15167;1.318;103.762;2022-07-29T10:09:08;23.70;99.90
27781;DHT22;15167;1.318;103.762;2022-07-29T10:11:34;23.70;99.90
27781;DHT22;15167;1.318;103.762;2022-07-29T10:14:02;23.70;99.90
27781;DHT22;15167;1.318;103.762;2022-07-29T10:16:28;23.70;99.90
27781;DHT22;15167;1.318;103.762;2022-07-29T10:19:01;23.70;99.90
27781;DHT22;15167;1.318;103.762;2022-07-29T10:21:27;23.70;99.90
27781;DHT22;15167;1.318;103.762;2022-07-29T10:23:53;23.60;99.90
27781;DHT22;15167;1.318;103.762;2022-07-29T10:26:20;23.70;99.90
27781;DHT22;15167;1.318;103.762;2022-07-29T10:28:46;23.70;99.90
27781;DHT22;15167;1.318;103.762;2022-07-29T10:31:15;23.80;99.90
27781;DHT22;15167;1.318;103.762;2022-07-29T10:33:51;23.80;99.90
27781;DHT22;15167;1.318;103.762;2022-07-29T10:36:27;23.70;99.90
27781;DHT22;15167;1.318;103.762;2022-07-29T10:39:10;23.90;99.90
27781;DHT22;15167;1.318;103.762;2022-07-29T10:41:53;24.10;99.90
27781;DHT22;15167;1.318;103.762;2022-07-29T10:44:22;24.30;99.90
27781;DHT22;15167;1.318;103.762;2022-07-29T10:46:49;24.20;99.90
27781;DHT22;15167;1.318;103.762;2022-07-29T10:49:19;24.20;99.90
27781;DHT22;15167;1.318;103.762;2022-07-29T10:51:56;24.20;99.90
27781;DHT22;15167;1.318;103.762;2022-07-29T10:57:14;24.50;99.90
27781;DHT22;15167;1.318;103.762;2022-07-29T10:59:42;24.50;99.90
27781;DHT22;15167;1.318;103.762;2022-07-29T11:02:53;24.60;99.90
27781;DHT22;15167;1.318;103.762;2022-07-29T11:07:21;24.80;99.90
27781;DHT22;15167;1.318;103.762;2022-07-29T11:15:04;24.30;99.90
27781;DHT22;15167;1.318;103.762;2022-07-29T11:18:04;24.30;99.90
27781;DHT22;15167;1.318;103.762;2022-07-29T11:20:42;24.30;99.90
27781;DHT22;15167;1.318;103.762;2022-07-29T11:23:19;24.20;99.90
27781;DHT22;15167;1.318;103.762;2022-07-29T11:25:56;24.30;99.90
27781;DHT22;15167;1.318;103.762;2022-07-29T11:28:33;24.50;99.90
27781;DHT22;15167;1.318;103.762;2022-07-29T11:31:00;24.80;99.90
27781;DHT22;15167;1.318;103.762;2022-07-29T11:33:29;25.00;99.90
27781;DHT22;15167;1.318;103.762;2022-07-29T11:36:10;25.30;99.90
27781;DHT22;15167;1.318;103.762;2022-07-29T11:38:36;25.50;99.90
27781;DHT22;15167;1.318;103.762;2022-07-29T11:43:53;25.70;99.90
27781;DHT22;15167;1.318;103.762;2022-07-29T11:49:04;25.90;99.90
27781;DHT22;15167;1.318;103.762;2022-07-29T11:51:31;26.00;99.90
27781;DHT22;15167;1.318;103.762;2022-07-29T11:53:57;26.10;99.90
27781;DHT22;15167;1.318;103.762;2022-07-29T11:56:23;26.10;99.90
27781;DHT22;15167;1.318;103.762;2022-07-29T11:59:02;26.10;99.90
27781;DHT22;15167;1.318;103.762;2022-07-29T12:01:28;26.10;99.90
27781;DHT22;15167;1.318;103.762;2022-07-29T12:04:04;26.20;99.90
27781;DHT22;15167;1.318;103.762;2022-07-29T12:06:34;26.20;99.90
27781;DHT22;15167;1.318;103.762;2022-07-29T12:09:05;26.20;99.90
27781;DHT22;15167;1.318;103.762;2022-07-29T12:11:32;26.20;99.90
27781;DHT22;15167;1.318;103.762;2022-07-29T12:13:58;26.30;99.90
27781;DHT22;15167;1.318;103.762;2022-07-29T12:16:34;26.30;99.90
27781;DHT22;15167;1.318;103.762;2022-07-29T12:19:00;26.50;99.90
27781;DHT22;15167;1.318;103.762;2022-07-29T12:21:28;26.50;99.90
27781;DHT22;15167;1.318;103.762;2022-07-29T12:23:56;26.50;99.90
27781;DHT22;15167;1.318;103.762;2022-07-29T12:26:22;26.50;99.90
27781;DHT22;15167;1.318;103.762;2022-07-29T12:28:49;26.60;99.90
27781;DHT22;15167;1.318;103.762;2022-07-29T12:31:15;26.60;99.90
27781;DHT22;15167;1.318;103.762;2022-07-29T12:33:42;26.60;99.90
27781;DHT22;15167;1.318;103.762;2022-07-29T12:36:08;26.70;99.90
27781;DHT22;15167;1.318;103.762;2022-07-29T12:38:34;26.80;99.90
27781;DHT22;15167;1.318;103.762;2022-07-29T12:41:01;26.80;99.90
27781;DHT22;15167;1.318;103.762;2022-07-29T12:43:27;26.80;99.90
27781;DHT22;15167;1.318;103.762;2022-07-29T12:45:55;26.80;99.90
27781;DHT22;15167;1.318;103.762;2022-07-29T12:48:36;26.90;99.90
27781;DHT22;15167;1.318;103.762;2022-07-29T12:51:04;26.90;99.90
27781;DHT22;15167;1.318;103.762;2022-07-29T12:53:31;26.90;99.90
27781;DHT22;15167;1.318;103.762;2022-07-29T12:55:58;26.90;99.90
27781;DHT22;15167;1.318;103.762;2022-07-29T13:01:06;26.90;99.90
27781;DHT22;15167;1.318;103.762;2022-07-29T13:11:34;26.90;99.90
27781;DHT22;15167;1.318;103.762;2022-07-29T13:14:01;26.90;99.90
27781;DHT22;15167;1.318;103.762;2022-07-29T13:16:27;26.90;99.90
27781;DHT22;15167;1.318;103.762;2022-07-29T13:21:48;26.90;99.90
27781;DHT22;15167;1.318;103.762;2022-07-29T13:24:15;27.00;99.90
27781;DHT22;15167;1.318;103.762;2022-07-29T13:26:41;27.00;99.90
27781;DHT22;15167;1.318;103.762;2022-07-29T13:29:07;27.00;99.90
27781;DHT22;15167;1.318;103.762;2022-07-29T13:31:35;27.00;99.90
27781;DHT22;15167;1.318;103.762;2022-07-29T13:34:01;27.00;99.90
27781;DHT22;15167;1.318;103.762;2022-07-29T13:36:27;27.00;99.90
27781;DHT22;15167;1.318;103.762;2022-07-29T13:38:53;27.00;99.90
27781;DHT22;15167;1.318;103.762;2022-07-29T13:41:19;27.00;99.90
27781;DHT22;15167;1.318;103.762;2022-07-29T13:43:45;27.00;99.90
27781;DHT22;15167;1.318;103.762;2022-07-29T13:46:11;27.00;99.90
27781;DHT22;15167;1.318;103.762;2022-07-29T13:48:38;26.90;99.90
27781;DHT22;15167;1.318;103.762;2022-07-29T13:51:04;26.90;99.90
27781;DHT22;15167;1.318;103.762;2022-07-29T13:53:30;26.90;99.90
27781;DHT22;15167;1.318;103.762;2022-07-29T13:55:56;26.90;99.90
27781;DHT22;15167;1.318;103.762;2022-07-29T13:58:22;26.90;99.90
27781;DHT22;15167;1.318;103.762;2022-07-29T14:00:48;27.00;99.90
27781;DHT22;15167;1.318;103.762;2022-07-29T14:03:15;27.10;99.90
27781;DHT22;15167;1.318;103.762;2022-07-29T14:05:41;27.10;99.90
27781;DHT22;15167;1.318;103.762;2022-07-29T14:08:07;27.10;99.90
27781;DHT22;15167;1.318;103.762;2022-07-29T14:10:33;27.00;99.90
27781;DHT22;15167;1.318;103.762;2022-07-29T14:12:59;27.00;99.90
27781;DHT22;15167;1.318;103.762;2022-07-29T14:15:25;27.00;99.90
27781;DHT22;15167;1.318;103.762;2022-07-29T14:17:52;27.00;99.90
27781;DHT22;15167;1.318;103.762;2022-07-29T14:20:18;27.00;99.90
27781;DHT22;15167;1.318;103.762;2022-07-29T14:22:44;26.90;99.90
27781;DHT22;15167;1.318;103.762;2022-07-29T14:25:10;26.90;99.90
27781;DHT22;15167;1.318;103.762;2022-07-29T14:27:36;26.80;99.90
27781;DHT22;15167;1.318;103.762;2022-07-29T14:30:03;26.80;99.90
27781;DHT22;15167;1.318;103.762;2022-07-29T14:32:29;26.80;99.90
27781;DHT22;15167;1.318;103.762;2022-07-29T14:34:55;26.80;99.90
27781;DHT22;15167;1.318;103.762;2022-07-29T14:37:21;26.80;99.90
27781;DHT22;15167;1.318;103.762;2022-07-29T14:39:47;26.80;99.90
27781;DHT22;15167;1.318;103.762;2022-07-29T14:42:13;26.80;99.90
27781;DHT22;15167;1.318;103.762;2022-07-29T14:44:40;26.80;99.90
27781;DHT22;15167;1.318;103.762;2022-07-29T14:47:06;26.80;99.90
27781;DHT22;15167;1.318;103.762;2022-07-29T14:49:32;26.80;99.90
27781;DHT22;15167;1.318;103.762;2022-07-29T14:51:59;26.80;99.90
27781;DHT22;15167;1.318;103.762;2022-07-29T14:54:25;26.80;99.90
27781;DHT22;15167;1.318;103.762;2022-07-29T14:56:51;26.80;99.90
27781;DHT22;15167;1.318;103.762;2022-07-29T14:59:20;26.80;99.90
27781;DHT22;15167;1.318;103.762;2022-07-29T15:01:46;26.80;99.90
27781;DHT22;15167;1.318;103.762;2022-07-29T15:04:12;26.80;99.90
27781;DHT22;15167;1.318;103.762;2022-07-29T15:06:38;26.80;99.90
27781;DHT22;15167;1.318;103.762;2022-07-29T15:09:05;26.90;99.90
27781;DHT22;15167;1.318;103.762;2022-07-29T15:11:31;26.90;99.90
27781;DHT22;15167;1.318;103.762;2022-07-29T15:13:57;26.90;99.90
27781;DHT22;15167;1.318;103.762;2022-07-29T15:16:23;26.90;99.90
27781;DHT22;15167;1.318;103.762;2022-07-29T15:18:49;26.90;99.90
27781;DHT22;15167;1.318;103.762;2022-07-29T15:21:16;26.90;99.90
27781;DHT22;15167;1.318;103.762;2022-07-29T15:23:42;26.80;99.90
27781;DHT22;15167;1.318;103.762;2022-07-29T15:26:08;26.80;99.90
27781;DHT22;15167;1.318;103.762;2022-07-29T15:28:34;26.80;99.90
27781;DHT22;15167;1.318;103.762;2022-07-29T15:31:00;26.80;99.90
27781;DHT22;15167;1.318;103.762;2022-07-29T15:33:26;26.80;99.90
27781;DHT22;15167;1.318;103.762;2022-07-29T15:35:53;26.80;99.90
27781;DHT22;15167;1.318;103.762;2022-07-29T15:38:19;26.80;99.90
27781;DHT22;15167;1.318;103.762;2022-07-29T15:40:45;26.80;99.90
27781;DHT22;15167;1.318;103.762;2022-07-29T15:43:12;26.80;99.90
27781;DHT22;15167;1.318;103.762;2022-07-29T15:45:39;26.80;99.90
27781;DHT22;15167;1.318;103.762;2022-07-29T15:48:05;26.80;99.90
27781;DHT22;15167;1.318;103.762;2022-07-29T15:50:32;26.90;99.90
27781;DHT22;15167;1.318;103.762;2022-07-29T15:52:58;26.80;99.90
27781;DHT22;15167;1.318;103.762;2022-07-29T15:55:24;26.80;99.90
27781;DHT22;15167;1.318;103.762;2022-07-29T15:57:51;26.80;99.90
27781;DHT22;15167;1.318;103.762;2022-07-29T16:00:17;26.80;99.90
27781;DHT22;15167;1.318;103.762;2022-07-29T16:02:44;26.80;99.90
27781;DHT22;15167;1.318;103.762;2022-07-29T16:05:10;26.90;99.90
27781;DHT22;15167;1.318;103.762;2022-07-29T16:07:36;26.80;99.90
27781;DHT22;15167;1.318;103.762;2022-07-29T16:10:02;26.80;99.90